createdAt,value
2022-08-27T00:00:46.904Z,6.30
2022-08-27T00:03:14.938Z,5.53
2022-08-27T00:05:42.754Z,6.22
2022-08-27T00:08:12.688Z,5.85
2022-08-27T00:10:41.613Z,5.47
2022-08-27T00:13:09.001Z,5.93
2022-08-27T00:15:36.862Z,5.50
2022-08-27T00:18:05.549Z,5.40
2022-08-27T00:20:33.622Z,5.40
2022-08-27T00:23:01.447Z,6.93
2022-08-27T00:25:28.827Z,8.40
2022-08-27T00:27:56.089Z,5.55
2022-08-27T00:30:23.983Z,5.43
2022-08-27T00:32:51.363Z,5.22
2022-08-27T00:35:18.886Z,5.53
2022-08-27T00:37:46.268Z,5.72
2022-08-27T00:40:17.422Z,5.55
2022-08-27T00:42:46.059Z,6.60
2022-08-27T00:45:16.953Z,5.50
2022-08-27T00:47:49.329Z,7.07
2022-08-27T00:50:23.385Z,5.97
2022-08-27T00:52:57.482Z,5.88
2022-08-27T00:55:28.753Z,6.22
2022-08-27T00:58:14.559Z,5.15
2022-08-27T01:00:42.548Z,4.90
2022-08-27T01:03:09.907Z,5.70
2022-08-27T01:05:38.517Z,7.60
2022-08-27T01:08:14.250Z,5.80
2022-08-27T01:10:42.358Z,5.82
2022-08-27T01:13:11.710Z,5.28
2022-08-27T01:15:41.177Z,5.53
2022-08-27T01:18:09.920Z,5.90
2022-08-27T01:20:54.390Z,6.13
2022-08-27T01:23:36.806Z,5.35
2022-08-27T01:26:06.765Z,5.65
2022-08-27T01:28:37.555Z,8.10
2022-08-27T01:31:08.256Z,5.30
2022-08-27T01:33:35.647Z,6.60
2022-08-27T01:36:03.920Z,5.78
2022-08-27T01:38:31.778Z,6.43
2022-08-27T01:41:00.838Z,6.55
2022-08-27T01:43:30.108Z,5.38
2022-08-27T01:45:57.415Z,5.97
2022-08-27T01:48:24.812Z,6.55
2022-08-27T01:50:52.095Z,5.55
2022-08-27T01:53:23.248Z,6.72
2022-08-27T01:55:52.516Z,5.80
2022-08-27T01:58:25.165Z,6.88
2022-08-27T02:03:25.007Z,5.78
2022-08-27T02:05:52.803Z,5.78
2022-08-27T02:08:20.856Z,5.50
2022-08-27T02:10:49.076Z,5.53
2022-08-27T02:13:17.446Z,5.72
2022-08-27T02:15:45.699Z,5.70
2022-08-27T02:18:14.920Z,6.60
2022-08-27T02:20:43.881Z,5.85
2022-08-27T02:23:11.739Z,5.75
2022-08-27T02:25:39.334Z,5.55
2022-08-27T02:28:08.363Z,6.28
2022-08-27T02:30:36.589Z,5.95
2022-08-27T02:33:05.834Z,6.40
2022-08-27T02:35:38.778Z,6.50
2022-08-27T02:38:08.172Z,5.53
2022-08-27T02:40:37.352Z,5.80
2022-08-27T02:43:05.631Z,6.60
2022-08-27T02:45:32.897Z,6.80
2022-08-27T02:48:03.345Z,6.93
2022-08-27T02:50:30.696Z,6.07
2022-08-27T02:52:57.969Z,6.38
2022-08-27T02:55:25.229Z,6.10
2022-08-27T02:57:52.558Z,6.47
2022-08-27T03:00:23.319Z,6.22
2022-08-27T03:02:50.727Z,6.18
2022-08-27T03:05:19.002Z,5.68
2022-08-27T03:07:46.289Z,6.68
2022-08-27T03:10:15.602Z,6.53
2022-08-27T03:12:44.224Z,6.40
2022-08-27T03:15:16.687Z,7.20
2022-08-27T03:18:02.500Z,8.45
2022-08-27T03:20:29.881Z,6.97
2022-08-27T03:22:57.380Z,6.00
2022-08-27T03:25:24.957Z,7.45
2022-08-27T03:27:52.311Z,6.38
2022-08-27T03:30:22.023Z,6.45
2022-08-27T03:32:49.440Z,6.43
2022-08-27T03:35:17.424Z,6.63
2022-08-27T03:37:44.667Z,6.35
2022-08-27T03:40:13.503Z,6.00
2022-08-27T03:42:42.822Z,7.07
2022-08-27T03:45:11.227Z,8.40
2022-08-27T03:47:38.804Z,8.65
2022-08-27T03:50:07.211Z,7.28
2022-08-27T03:52:36.264Z,7.07
2022-08-27T03:55:06.492Z,6.82
2022-08-27T03:57:33.842Z,6.50
2022-08-27T04:00:01.330Z,7.07
2022-08-27T04:02:28.863Z,8.35
2022-08-27T04:04:57.774Z,8.07
2022-08-27T04:07:25.120Z,7.70
2022-08-27T04:09:52.453Z,8.43
2022-08-27T04:12:19.808Z,7.82
2022-08-27T04:14:47.309Z,7.80
2022-08-27T04:17:14.655Z,8.50
2022-08-27T04:19:41.920Z,7.13
2022-08-27T04:22:09.198Z,7.35
2022-08-27T04:24:38.032Z,8.48
2022-08-27T04:27:06.441Z,9.35
2022-08-27T04:29:34.476Z,9.13
2022-08-27T04:32:02.133Z,8.02
2022-08-27T04:34:30.861Z,8.02
2022-08-27T04:36:58.129Z,10.40
2022-08-27T04:39:30.402Z,7.80
2022-08-27T04:41:59.559Z,7.95
2022-08-27T04:44:30.392Z,8.55
2022-08-27T04:47:00.830Z,8.15
2022-08-27T04:49:29.859Z,8.20
2022-08-27T04:51:59.360Z,8.00
2022-08-27T04:54:32.226Z,8.48
2022-08-27T04:57:02.776Z,7.78
2022-08-27T04:59:31.794Z,8.65
2022-08-27T05:01:59.910Z,8.00
2022-08-27T05:04:30.782Z,7.70
2022-08-27T05:06:58.160Z,11.32
2022-08-27T05:09:26.905Z,8.77
2022-08-27T05:11:55.536Z,8.65
2022-08-27T05:14:24.331Z,7.03
2022-08-27T05:16:51.765Z,8.43
2022-08-27T05:19:19.013Z,6.80
2022-08-27T05:21:49.446Z,7.18
2022-08-27T05:24:19.173Z,7.78
2022-08-27T05:26:46.619Z,7.18
2022-08-27T05:29:14.728Z,7.65
2022-08-27T05:31:43.167Z,7.40
2022-08-27T05:34:18.867Z,7.57
2022-08-27T05:36:49.614Z,7.15
2022-08-27T05:39:17.551Z,7.55
2022-08-27T05:41:44.902Z,6.97
2022-08-27T05:44:40.228Z,7.32
2022-08-27T05:46:59.589Z,7.78
2022-08-27T05:49:26.841Z,8.55
2022-08-27T05:51:54.179Z,7.53
2022-08-27T05:54:21.492Z,7.68
2022-08-27T05:56:50.066Z,9.45
2022-08-27T05:59:36.742Z,7.20
2022-08-27T06:02:06.252Z,7.78
2022-08-27T06:04:33.841Z,8.10
2022-08-27T06:07:01.131Z,7.82
2022-08-27T06:09:29.439Z,8.00
2022-08-27T06:11:59.734Z,6.72
2022-08-27T06:14:28.305Z,6.60
2022-08-27T06:16:56.410Z,8.40
2022-08-27T06:19:24.135Z,10.90
2022-08-27T06:22:01.057Z,7.18
2022-08-27T06:24:39.792Z,7.47
2022-08-27T06:27:09.828Z,9.10
2022-08-27T06:29:37.342Z,6.57
2022-08-27T06:32:05.593Z,8.38
2022-08-27T06:34:33.890Z,7.07
2022-08-27T06:37:01.687Z,8.45
2022-08-27T06:39:29.178Z,7.25
2022-08-27T06:41:58.840Z,10.52
2022-08-27T06:44:27.024Z,8.50
2022-08-27T06:46:54.541Z,7.22
2022-08-27T06:49:21.870Z,7.25
2022-08-27T06:51:49.332Z,7.78
2022-08-27T06:54:18.603Z,7.75
2022-08-27T06:56:45.899Z,6.75
2022-08-27T06:59:15.932Z,7.90
2022-08-27T07:01:46.823Z,6.47
2022-08-27T07:04:19.519Z,9.05
2022-08-27T07:09:14.288Z,8.93
2022-08-27T07:11:41.592Z,7.57
2022-08-27T07:14:09.718Z,8.85
2022-08-27T07:16:37.728Z,7.53
2022-08-27T07:19:08.350Z,7.53
2022-08-27T07:21:36.260Z,10.52
2022-08-27T07:24:05.587Z,6.57
2022-08-27T07:26:37.054Z,7.90
2022-08-27T07:29:09.905Z,8.57
2022-08-27T07:31:38.861Z,9.25
2022-08-27T07:34:06.712Z,8.23
2022-08-27T07:36:35.110Z,7.35
2022-08-27T07:39:02.364Z,6.40
2022-08-27T07:41:31.834Z,6.45
2022-08-27T07:44:18.931Z,8.07
2022-08-27T07:46:48.585Z,5.53
2022-08-27T07:49:18.101Z,10.18
2022-08-27T07:51:45.964Z,7.40
2022-08-27T07:54:13.507Z,7.05
2022-08-27T07:56:41.656Z,5.38
2022-08-27T07:59:11.497Z,6.63
2022-08-27T08:01:38.863Z,6.88
2022-08-27T08:04:06.245Z,7.13
2022-08-27T08:06:42.206Z,6.82
2022-08-27T08:09:11.417Z,6.22
2022-08-27T08:11:42.385Z,5.90
2022-08-27T08:14:09.738Z,7.65
2022-08-27T08:16:37.117Z,6.55
2022-08-27T08:19:04.441Z,6.80
2022-08-27T08:21:31.967Z,8.05
2022-08-27T08:24:00.075Z,7.15
2022-08-27T08:26:27.669Z,7.35
2022-08-27T08:28:55.615Z,9.43
2022-08-27T08:31:24.358Z,7.70
2022-08-27T08:33:52.281Z,6.68
2022-08-27T08:36:22.164Z,7.10
2022-08-27T08:38:50.906Z,8.95
2022-08-27T08:41:43.454Z,7.07
2022-08-27T08:44:25.998Z,7.38
2022-08-27T08:46:59.767Z,6.50
2022-08-27T08:49:49.607Z,6.05
2022-08-27T08:52:35.561Z,8.23
2022-08-27T08:55:15.029Z,6.22
2022-08-27T08:58:01.168Z,8.63
2022-08-27T09:00:28.461Z,10.43
2022-08-27T09:02:55.934Z,7.82
2022-08-27T09:05:27.367Z,7.88
2022-08-27T09:08:34.119Z,8.95
2022-08-27T09:11:08.261Z,8.70
2022-08-27T09:13:42.041Z,7.55
2022-08-27T09:16:09.781Z,8.00
2022-08-27T09:18:40.887Z,7.55
2022-08-27T09:21:28.075Z,7.95
2022-08-27T09:24:01.868Z,9.48
2022-08-27T09:26:32.349Z,10.15
2022-08-27T09:29:17.480Z,10.30
2022-08-27T09:31:53.994Z,7.68
2022-08-27T09:34:21.817Z,8.10
2022-08-27T09:36:51.694Z,8.43
2022-08-27T09:39:19.177Z,7.22
2022-08-27T09:41:48.940Z,8.77
2022-08-27T09:44:22.847Z,9.00
2022-08-27T09:46:59.417Z,8.18
2022-08-27T09:49:27.234Z,7.88
2022-08-27T09:51:56.184Z,8.77
2022-08-27T09:54:46.674Z,12.18
2022-08-27T09:57:30.742Z,8.45
2022-08-27T09:59:58.558Z,12.05
2022-08-27T10:02:26.893Z,11.20
2022-08-27T10:04:58.751Z,16.02
2022-08-27T10:08:03.251Z,13.10
2022-08-27T10:10:49.003Z,20.75
2022-08-27T10:13:20.493Z,13.15
2022-08-27T10:16:15.076Z,10.73
2022-08-27T10:19:05.497Z,10.27
2022-08-27T10:21:47.187Z,8.05
2022-08-27T10:24:17.061Z,13.23
2022-08-27T10:27:10.012Z,12.20
2022-08-27T10:32:52.341Z,12.38
2022-08-27T10:35:28.637Z,9.68
2022-08-27T10:38:25.239Z,11.73
2022-08-27T10:41:02.117Z,14.15
2022-08-27T10:43:50.675Z,13.77
2022-08-27T10:46:39.095Z,11.25
2022-08-27T10:49:23.679Z,14.15
2022-08-27T10:52:24.792Z,12.73
2022-08-27T10:55:21.818Z,12.40
2022-08-27T10:58:10.733Z,16.73
2022-08-27T11:00:56.086Z,12.98
2022-08-27T11:03:33.599Z,11.45
2022-08-27T11:06:19.096Z,6.38
2022-08-27T11:08:52.094Z,8.65
2022-08-27T11:12:13.228Z,6.70
2022-08-27T11:14:56.885Z,6.30
2022-08-27T11:20:15.351Z,3.20
2022-08-27T11:25:21.974Z,3.97
2022-08-27T11:27:52.073Z,4.80
2022-08-27T11:30:46.519Z,5.88
2022-08-27T11:33:35.554Z,3.75
2022-08-27T11:36:09.026Z,5.72
2022-08-27T11:38:53.662Z,4.40
2022-08-27T11:41:45.367Z,6.38
2022-08-27T11:44:15.241Z,3.83
2022-08-27T11:46:48.670Z,3.55
2022-08-27T11:49:29.913Z,3.53
2022-08-27T11:52:01.105Z,7.00
2022-08-27T11:54:42.718Z,4.70
2022-08-27T11:57:25.263Z,5.20
2022-08-27T11:59:53.120Z,3.83
2022-08-27T12:02:20.308Z,6.45
2022-08-27T12:04:49.623Z,5.38
2022-08-27T12:07:17.438Z,5.40
2022-08-27T12:09:54.975Z,3.72
2022-08-27T12:13:21.299Z,7.63
2022-08-27T12:15:51.757Z,8.45
2022-08-27T12:18:32.629Z,7.50
2022-08-27T12:21:11.783Z,6.88
2022-08-27T12:24:05.202Z,5.45
2022-08-27T12:26:34.614Z,6.38
2022-08-27T12:29:31.545Z,4.28
2022-08-27T12:32:40.776Z,5.97
2022-08-27T12:35:36.072Z,6.15
2022-08-27T12:38:17.151Z,4.75
2022-08-27T12:41:09.289Z,6.35
2022-08-27T12:43:43.299Z,6.57
2022-08-27T12:46:20.329Z,6.40
2022-08-27T12:48:55.235Z,9.10
2022-08-27T12:51:25.974Z,10.77
2022-08-27T12:54:13.189Z,8.32
2022-08-27T12:57:12.535Z,5.85
2022-08-27T13:00:18.817Z,7.82
2022-08-27T13:03:04.838Z,7.85
2022-08-27T13:05:44.666Z,7.72
2022-08-27T13:08:18.978Z,8.38
2022-08-27T13:10:46.296Z,5.85
2022-08-27T13:13:20.956Z,8.90
2022-08-27T13:16:02.114Z,6.40
2022-08-27T13:18:30.547Z,5.82
2022-08-27T13:21:28.528Z,7.05
2022-08-27T13:24:01.422Z,8.27
2022-08-27T13:26:34.149Z,5.07
2022-08-27T13:29:03.770Z,5.40
2022-08-27T13:31:32.479Z,4.80
2022-08-27T13:34:01.096Z,4.63
2022-08-27T13:36:32.131Z,4.95
2022-08-27T13:39:02.515Z,9.23
2022-08-27T13:41:38.483Z,6.00
2022-08-27T13:44:07.464Z,6.72
2022-08-27T13:46:48.654Z,6.18
2022-08-27T13:49:23.032Z,7.22
2022-08-27T13:52:00.273Z,5.22
2022-08-27T13:54:28.435Z,6.55
2022-08-27T13:57:03.694Z,5.63
2022-08-27T13:59:31.679Z,4.30
2022-08-27T14:02:11.364Z,6.88
2022-08-27T14:04:39.136Z,6.10
2022-08-27T14:07:09.266Z,4.90
2022-08-27T14:09:45.489Z,5.28
2022-08-27T14:12:33.079Z,8.63
2022-08-27T14:15:34.133Z,9.60
2022-08-27T14:18:04.377Z,6.63
2022-08-27T14:20:32.172Z,7.75
2022-08-27T14:22:59.649Z,7.43
2022-08-27T14:25:26.972Z,8.30
2022-08-27T14:27:57.202Z,7.85
2022-08-27T14:30:29.266Z,7.00
2022-08-27T14:32:59.167Z,8.07
2022-08-27T14:35:28.112Z,6.13
2022-08-27T14:37:55.771Z,8.15
2022-08-27T14:40:23.233Z,7.63
2022-08-27T14:42:50.916Z,10.85
2022-08-27T14:45:18.538Z,5.93
2022-08-27T14:47:45.874Z,7.05
2022-08-27T14:50:14.079Z,5.15
2022-08-27T14:52:41.652Z,7.70
2022-08-27T14:55:10.952Z,8.90
2022-08-27T14:57:38.811Z,9.32
2022-08-27T15:00:08.209Z,6.38
2022-08-27T15:02:40.005Z,8.10
2022-08-27T15:05:11.815Z,6.30
2022-08-27T15:07:41.702Z,7.60
2022-08-27T15:10:15.367Z,7.10
2022-08-27T15:12:43.354Z,5.80
2022-08-27T15:15:11.716Z,6.43
2022-08-27T15:17:39.075Z,7.15
2022-08-27T15:20:09.423Z,6.35
2022-08-27T15:22:44.177Z,5.90
2022-08-27T15:25:15.516Z,7.70
2022-08-27T15:27:43.167Z,6.75
2022-08-27T15:30:13.031Z,8.45
2022-08-27T15:32:46.553Z,8.98
2022-08-27T15:35:17.341Z,7.00
2022-08-27T15:37:45.659Z,9.40
2022-08-27T15:40:15.326Z,6.63
2022-08-27T15:42:43.348Z,9.38
2022-08-27T15:45:13.269Z,7.38
2022-08-27T15:47:40.638Z,9.07
2022-08-27T15:50:08.495Z,9.00
2022-08-27T15:52:40.853Z,6.25
2022-08-27T15:55:30.289Z,6.65
2022-08-27T15:57:58.357Z,7.03
2022-08-27T16:00:26.835Z,6.55
2022-08-27T16:02:54.572Z,6.63
2022-08-27T16:05:22.702Z,6.60
2022-08-27T16:07:50.567Z,7.88
2022-08-27T16:10:17.944Z,6.88
2022-08-27T16:12:46.298Z,7.78
2022-08-27T16:15:14.974Z,7.18
2022-08-27T16:17:42.634Z,6.85
2022-08-27T16:20:12.965Z,6.53
2022-08-27T16:22:41.959Z,7.07
2022-08-27T16:25:13.131Z,7.43
2022-08-27T16:27:42.643Z,8.68
2022-08-27T16:30:12.745Z,7.88
2022-08-27T16:32:40.516Z,7.65
2022-08-27T16:35:08.909Z,6.35
2022-08-27T16:37:36.391Z,7.70
2022-08-27T16:40:04.225Z,7.30
2022-08-27T16:42:33.273Z,6.38
2022-08-27T16:45:01.572Z,7.82
2022-08-27T16:47:28.956Z,7.07
2022-08-27T16:50:22.883Z,6.38
2022-08-27T16:52:52.906Z,6.60
2022-08-27T16:55:20.204Z,5.97
2022-08-27T16:57:47.445Z,7.85
2022-08-27T17:00:14.934Z,5.97
2022-08-27T17:02:42.628Z,6.93
2022-08-27T17:05:33.559Z,6.00
2022-08-27T17:07:59.471Z,7.15
2022-08-27T17:10:33.927Z,6.43
2022-08-27T17:13:01.282Z,5.85
2022-08-27T17:15:28.769Z,6.00
2022-08-27T17:17:57.906Z,7.30
2022-08-27T17:20:25.734Z,5.78
2022-08-27T17:22:57.256Z,5.85
2022-08-27T17:25:30.070Z,5.85
2022-08-27T17:28:00.238Z,5.78
2022-08-27T17:30:28.161Z,5.68
2022-08-27T17:32:55.574Z,5.85
2022-08-27T17:35:22.874Z,6.35
2022-08-27T17:37:50.179Z,5.10
2022-08-27T17:40:17.567Z,4.93
2022-08-27T17:42:44.860Z,7.15
2022-08-27T17:45:12.275Z,6.43
2022-08-27T17:47:39.567Z,5.53
2022-08-27T17:50:07.169Z,5.75
2022-08-27T17:52:37.690Z,5.65
2022-08-27T17:55:05.918Z,5.70
2022-08-27T17:57:40.401Z,5.47
2022-08-27T18:00:13.007Z,5.32
2022-08-27T18:02:46.975Z,5.97
2022-08-27T18:05:16.452Z,5.97
2022-08-27T18:07:44.273Z,5.70
2022-08-27T18:10:14.020Z,5.85
2022-08-27T18:12:42.192Z,5.47
2022-08-27T18:15:35.784Z,9.38
2022-08-27T18:18:04.562Z,6.20
2022-08-27T18:20:33.942Z,4.88
2022-08-27T18:23:03.530Z,6.38
2022-08-27T18:25:36.020Z,5.03
2022-08-27T18:28:09.125Z,5.18
2022-08-27T18:30:39.503Z,6.13
2022-08-27T18:33:08.131Z,5.20
2022-08-27T18:35:36.674Z,5.30
2022-08-27T18:38:04.807Z,5.72
2022-08-27T18:40:38.209Z,5.78
2022-08-27T18:43:05.948Z,5.57
2022-08-27T18:45:36.039Z,5.18
2022-08-27T18:48:13.158Z,5.32
2022-08-27T18:50:47.930Z,5.63
2022-08-27T18:53:18.480Z,5.53
2022-08-27T18:55:46.418Z,5.93
2022-08-27T18:58:13.917Z,4.95
2022-08-27T19:00:44.393Z,6.00
2022-08-27T19:03:26.259Z,5.82
2022-08-27T19:05:55.033Z,4.80
2022-08-27T19:08:24.559Z,5.30
2022-08-27T19:10:51.886Z,5.57
2022-08-27T19:13:19.363Z,5.50
2022-08-27T19:15:52.743Z,5.00
2022-08-27T19:18:21.500Z,5.60
2022-08-27T19:20:48.884Z,4.90
2022-08-27T19:23:16.371Z,4.55
2022-08-27T19:25:50.347Z,5.50
2022-08-27T19:28:23.133Z,6.40
2022-08-27T19:30:50.504Z,5.00
2022-08-27T19:33:18.107Z,5.63
2022-08-27T19:35:45.481Z,6.53
2022-08-27T19:38:14.421Z,5.05
2022-08-27T19:40:42.286Z,5.03
2022-08-27T19:43:10.109Z,5.43
2022-08-27T19:45:40.290Z,5.25
2022-08-27T19:48:08.794Z,6.03
2022-08-27T19:50:36.116Z,5.32
2022-08-27T19:53:04.183Z,4.97
2022-08-27T19:55:31.531Z,5.53
2022-08-27T19:57:58.860Z,5.32
2022-08-27T20:00:27.838Z,4.32
2022-08-27T20:02:55.878Z,5.13
2022-08-27T20:05:23.301Z,5.03
2022-08-27T20:07:52.630Z,5.05
2022-08-27T20:10:25.757Z,5.18
2022-08-27T20:12:59.662Z,4.80
2022-08-27T20:15:27.148Z,5.35
2022-08-27T20:17:54.510Z,4.95
2022-08-27T20:20:24.536Z,6.40
2022-08-27T20:22:52.007Z,5.85
2022-08-27T20:25:19.828Z,4.90
2022-08-27T20:27:47.726Z,4.97
2022-08-27T20:30:16.908Z,5.45
2022-08-27T20:32:46.694Z,5.13
2022-08-27T20:35:15.961Z,5.18
2022-08-27T20:37:43.489Z,5.03
2022-08-27T20:40:16.044Z,4.97
2022-08-27T20:45:13.294Z,5.90
2022-08-27T20:47:43.370Z,5.15
2022-08-27T20:50:12.871Z,6.53
2022-08-27T20:52:41.899Z,4.95
2022-08-27T20:55:09.973Z,4.63
2022-08-27T20:57:37.240Z,5.57
2022-08-27T21:00:21.387Z,4.88
2022-08-27T21:02:48.838Z,4.75
2022-08-27T21:05:18.029Z,5.05
2022-08-27T21:07:48.561Z,4.22
2022-08-27T21:10:15.940Z,4.88
2022-08-27T21:12:44.362Z,5.28
2022-08-27T21:15:12.286Z,5.20
2022-08-27T21:17:39.801Z,5.18
2022-08-27T21:20:11.011Z,4.70
2022-08-27T21:22:39.979Z,4.95
2022-08-27T21:25:08.840Z,5.22
2022-08-27T21:27:36.543Z,5.80
2022-08-27T21:30:04.819Z,5.90
2022-08-27T21:32:32.596Z,5.22
2022-08-27T21:34:59.946Z,5.13
2022-08-27T21:37:27.269Z,4.78
2022-08-27T21:39:54.654Z,5.82
2022-08-27T21:42:22.005Z,5.15
2022-08-27T21:44:50.555Z,4.53
2022-08-27T21:47:17.893Z,5.63
2022-08-27T21:49:45.296Z,5.00
2022-08-27T21:52:12.896Z,5.28
2022-08-27T21:54:42.180Z,5.90
2022-08-27T21:57:14.032Z,4.93
2022-08-27T21:59:45.878Z,4.78
2022-08-27T22:02:38.308Z,5.50
2022-08-27T22:05:02.391Z,5.43
2022-08-27T22:07:29.797Z,4.85
2022-08-27T22:09:57.159Z,5.55
2022-08-27T22:12:25.478Z,5.22
2022-08-27T22:14:52.813Z,5.20
2022-08-27T22:17:20.333Z,5.00
2022-08-27T22:19:47.621Z,4.63
2022-08-27T22:22:14.976Z,4.80
2022-08-27T22:24:42.240Z,4.72
2022-08-27T22:27:09.579Z,4.88
2022-08-27T22:29:37.000Z,5.00
2022-08-27T22:32:07.539Z,8.32
2022-08-27T22:34:36.238Z,10.32
2022-08-27T22:37:04.297Z,11.75
2022-08-27T22:39:31.812Z,11.27
2022-08-27T22:42:00.159Z,14.45
2022-08-27T22:44:29.417Z,10.68
2022-08-27T22:46:57.226Z,10.52
2022-08-27T22:49:24.652Z,9.18
2022-08-27T22:51:51.921Z,11.60
2022-08-27T22:54:19.220Z,11.05
2022-08-27T22:56:46.574Z,10.90
2022-08-27T22:59:14.367Z,13.07
2022-08-27T23:01:41.906Z,11.57
2022-08-27T23:04:09.323Z,11.85
2022-08-27T23:06:36.915Z,12.05
2022-08-27T23:09:04.581Z,10.85
2022-08-27T23:11:31.919Z,11.57
2022-08-27T23:13:59.895Z,12.27
2022-08-27T23:16:28.150Z,10.95
2022-08-27T23:18:55.496Z,10.57
2022-08-27T23:21:23.002Z,11.25
2022-08-27T23:23:50.245Z,9.35
2022-08-27T23:26:36.401Z,10.93
2022-08-27T23:29:03.691Z,14.60
2022-08-27T23:31:32.329Z,12.43
2022-08-27T23:33:59.880Z,10.25
2022-08-27T23:36:29.360Z,10.30
2022-08-27T23:38:58.360Z,10.10
2022-08-27T23:41:28.268Z,10.23
2022-08-27T23:43:55.721Z,10.95
2022-08-27T23:46:23.073Z,10.30
2022-08-27T23:48:50.402Z,10.55
2022-08-27T23:51:17.786Z,10.77
2022-08-27T23:53:45.120Z,11.80
2022-08-27T23:56:14.593Z,11.93
2022-08-27T23:58:42.004Z,12.05
